Time;durP1;ratioP1;P1;durP2;ratioP2;P2;SDS_P1;SDS_P2;PMS_P1;PMS_P2;Temp;Humidity;BMP_temperature;BMP_pressure;BME280_temperature;BME280_humidity;BME280_pressure;Samples;Min_cycle;Max_cycle;Signal;HPM_P1;HPM_P2
2021/10/18 00:01:51;;;;;;;11.70;10.37;;;;;;;13.41;61.43;98514.06;8242933;28;20231;-80
2021/10/18 00:05:54;;;;;;;12.90;11.60;;;;;;;13.37;61.31;98503.88;8252906;28;20230;-81
2021/10/18 00:09:58;;;;;;;12.10;10.67;;;;;;;13.39;61.26;98508.09;8253138;28;20202;-82
2021/10/18 00:14:02;;;;;;;12.37;11.07;;;;;;;13.32;61.62;98526.66;8252982;28;20234;-82
2021/10/18 00:18:05;;;;;;;13.00;10.80;;;;;;;13.35;61.43;98535.16;8253259;28;20513;-82
2021/10/18 00:22:07;;;;;;;12.53;10.30;;;;;;;13.38;61.56;98528.97;8253048;28;20213;-81
2021/10/18 00:26:15;;;;;;;12.27;10.53;;;;;;;13.34;61.54;98541.25;8255192;28;20591;-82
2021/10/18 00:30:17;;;;;;;14.00;10.80;;;;;;;13.32;61.12;98539.66;8252583;28;20209;-82
2021/10/18 00:34:20;;;;;;;11.53;10.33;;;;;;;13.29;61.90;98543.22;8252491;28;20501;-82
2021/10/18 00:38:23;;;;;;;13.33;10.90;;;;;;;13.36;61.81;98533.41;8252448;28;20521;-81
2021/10/18 00:42:28;;;;;;;12.37;10.17;;;;;;;13.33;61.54;98536.13;8252293;28;20202;-81
2021/10/18 00:46:32;;;;;;;11.10;9.90;;;;;;;13.30;61.85;98534.53;8252299;28;20337;-81
2021/10/18 00:50:36;;;;;;;11.27;10.17;;;;;;;13.30;61.88;98539.72;8252143;28;20229;-80
2021/10/18 00:54:39;;;;;;;12.37;10.23;;;;;;;13.30;61.79;98547.53;8251889;28;20407;-80
2021/10/18 00:58:44;;;;;;;11.33;9.63;;;;;;;13.29;61.50;98544.06;8252116;28;20387;-80
2021/10/18 01:02:47;;;;;;;11.53;10.33;;;;;;;13.25;61.79;98539.91;8238817;28;20274;-80
2021/10/18 01:06:50;;;;;;;14.07;10.53;;;;;;;13.22;61.94;98534.84;8219907;28;20231;-80
2021/10/18 01:10:53;;;;;;;12.97;10.40;;;;;;;13.17;62.09;98533.38;8219832;28;20222;-81
2021/10/18 01:14:57;;;;;;;12.20;10.53;;;;;;;13.18;62.05;98530.72;8220178;28;20215;-81
2021/10/18 01:19:10;;;;;;;12.93;10.60;;;;;;;13.20;61.36;98521.06;8219852;28;20210;-80
2021/10/18 01:23:14;;;;;;;11.50;10.40;;;;;;;13.04;61.83;98520.06;8220046;28;20207;-80
2021/10/18 01:27:17;;;;;;;11.67;10.13;;;;;;;13.07;61.79;98510.38;8219687;28;20237;-80
2021/10/18 01:31:20;;;;;;;10.70;9.70;;;;;;;13.01;61.59;98513.28;8223069;28;20214;-80
2021/10/18 01:35:23;;;;;;;12.43;10.77;;;;;;;12.96;61.42;98517.00;8225249;28;20278;-80
2021/10/18 01:39:27;;;;;;;12.20;10.47;;;;;;;12.94;61.43;98524.03;8225336;28;20206;-80
2021/10/18 01:43:30;;;;;;;11.83;10.30;;;;;;;12.86;61.49;98525.19;8224935;28;20214;-80
2021/10/18 01:47:33;;;;;;;11.00;9.73;;;;;;;12.87;61.38;98529.50;8225200;28;20230;-81
2021/10/18 01:51:36;;;;;;;10.20;9.20;;;;;;;12.79;61.03;98538.53;8224739;28;20235;-81
2021/10/18 01:55:41;;;;;;;10.77;9.73;;;;;;;12.76;60.97;98538.69;8224885;28;20286;-81
2021/10/18 01:59:44;;;;;;;11.37;9.67;;;;;;;12.72;60.71;98543.19;8224759;28;20211;-81
2021/10/18 02:03:46;;;;;;;13.17;9.50;;;;;;;12.66;60.55;98538.22;8224532;28;20210;-81
2021/10/18 02:07:49;;;;;;;9.80;8.90;;;;;;;12.68;60.64;98539.88;8224351;28;20235;-80
2021/10/18 02:11:53;;;;;;;12.10;9.80;;;;;;;12.67;60.51;98545.97;8224162;28;20209;-81
2021/10/18 02:15:56;;;;;;;11.20;9.67;;;;;;;12.63;60.65;98559.16;8224347;28;20215;-81
2021/10/18 02:19:59;;;;;;;10.47;9.33;;;;;;;12.55;60.89;98559.50;8224295;28;20226;-81
2021/10/18 02:24:03;;;;;;;10.30;9.20;;;;;;;12.50;61.00;98554.47;8224142;28;20202;-81
2021/10/18 02:28:07;;;;;;;10.97;8.67;;;;;;;12.52;60.99;98554.41;8223811;28;20227;-81
2021/10/18 02:32:10;;;;;;;10.33;9.27;;;;;;;12.54;60.95;98559.56;8223727;28;20242;-81
2021/10/18 02:36:13;;;;;;;10.30;8.00;;;;;;;12.50;60.56;98551.88;8223498;28;20207;-80
2021/10/18 02:40:16;;;;;;;9.17;8.27;;;;;;;12.46;60.64;98545.13;8223294;28;20207;-81
2021/10/18 02:44:21;;;;;;;8.73;7.83;;;;;;;12.45;60.59;98556.44;8222598;28;20383;-81
2021/10/18 02:48:24;;;;;;;9.00;8.07;;;;;;;12.40;60.51;98553.19;8223260;28;20495;-80
2021/10/18 02:52:27;;;;;;;10.23;8.40;;;;;;;12.35;60.84;98562.09;8222953;28;20541;-80
2021/10/18 02:56:29;;;;;;;8.67;7.83;;;;;;;12.30;60.70;98555.34;8222920;28;20214;-80
2021/10/18 03:00:34;;;;;;;8.57;7.77;;;;;;;12.26;60.58;98555.50;8222891;28;20207;-80
2021/10/18 03:04:37;;;;;;;8.57;7.10;;;;;;;12.23;60.84;98563.44;8222578;28;20207;-80
2021/10/18 03:08:41;;;;;;;8.97;7.67;;;;;;;12.26;60.74;98569.38;8222785;28;20210;-80
2021/10/18 03:12:44;;;;;;;8.60;7.80;;;;;;;12.22;61.34;98580.78;8223025;28;20209;-82
2021/10/18 03:16:50;;;;;;;9.23;8.33;;;;;;;12.28;61.02;98584.84;8225165;28;20391;-80
2021/10/18 03:20:53;;;;;;;9.27;8.30;;;;;;;12.24;61.27;98583.31;8222416;28;20486;-80
2021/10/18 03:24:56;;;;;;;9.60;8.70;;;;;;;12.30;61.36;98580.47;8221832;28;20238;-80
2021/10/18 03:28:59;;;;;;;10.17;8.70;;;;;;;12.33;61.64;98581.16;8222014;28;20203;-80
2021/10/18 03:33:04;;;;;;;9.43;8.07;;;;;;;12.38;61.34;98573.19;8221874;28;20210;-80
2021/10/18 03:37:06;;;;;;;9.43;8.43;;;;;;;12.32;61.77;98589.88;8221850;28;20214;-80
2021/10/18 03:41:09;;;;;;;9.13;8.17;;;;;;;12.39;61.73;98577.47;8221727;28;20209;-80
2021/10/18 03:45:13;;;;;;;10.10;9.03;;;;;;;12.38;61.65;98582.75;8221548;28;20418;-80
2021/10/18 03:49:18;;;;;;;11.70;8.90;;;;;;;12.38;61.90;98593.13;8221565;28;20223;-79
2021/10/18 03:53:22;;;;;;;11.33;8.53;;;;;;;12.40;61.71;98599.13;8221214;28;20239;-79
2021/10/18 03:57:25;;;;;;;9.40;8.40;;;;;;;12.40;61.60;98602.53;8221212;28;20206;-80
2021/10/18 04:01:28;;;;;;;9.60;8.63;;;;;;;12.42;61.72;98611.13;8220822;28;20210;-80
2021/10/18 04:05:33;;;;;;;10.10;8.70;;;;;;;12.39;61.68;98621.63;8220885;28;20297;-80
2021/10/18 04:09:38;;;;;;;11.03;8.50;;;;;;;12.41;61.96;98619.81;8220922;28;20501;-79
2021/10/18 04:13:41;;;;;;;9.47;8.33;;;;;;;12.42;61.79;98623.28;8220766;28;20202;-79
2021/10/18 04:17:44;;;;;;;9.50;8.47;;;;;;;12.43;61.94;98631.00;8220801;28;20207;-80
2021/10/18 04:21:48;;;;;;;10.00;8.57;;;;;;;12.46;62.37;98628.25;8220533;28;20203;-79
2021/10/18 04:25:51;;;;;;;12.60;9.13;;;;;;;12.51;62.09;98628.91;8220548;28;20249;-80
2021/10/18 04:29:54;;;;;;;11.73;9.10;;;;;;;12.47;62.42;98629.09;8220493;28;20212;-79
2021/10/18 04:33:59;;;;;;;11.60;9.03;;;;;;;12.49;62.41;98643.72;8220490;28;20388;-80
2021/10/18 04:38:04;;;;;;;12.87;9.47;;;;;;;12.46;62.40;98650.81;8220416;28;20210;-79
2021/10/18 04:42:07;;;;;;;15.47;10.80;;;;;;;12.53;62.53;98657.44;8220578;28;20203;-79
2021/10/18 04:46:10;;;;;;;21.53;11.80;;;;;;;12.59;62.38;98657.19;8220568;28;20408;-80
2021/10/18 04:50:12;;;;;;;24.63;12.80;;;;;;;12.52;63.21;98658.34;8219914;28;20223;-81
2021/10/18 04:54:17;;;;;;;24.47;13.80;;;;;;;12.52;63.26;98666.97;8220201;28;20245;-80
2021/10/18 04:58:22;;;;;;;23.57;13.50;;;;;;;12.53;63.23;98662.63;8220103;28;20207;-80
2021/10/18 05:02:24;;;;;;;28.83;14.17;;;;;;;12.56;62.99;98664.25;8219842;28;20234;-79
2021/10/18 05:06:27;;;;;;;26.23;15.90;;;;;;;12.57;63.41;98663.38;8223624;28;20234;-79
2021/10/18 05:10:32;;;;;;;31.33;15.93;;;;;;;12.55;63.62;98662.59;8226392;28;20203;-80
2021/10/18 05:14:35;;;;;;;34.33;18.53;;;;;;;12.48;64.04;98664.56;8226295;28;20203;-81
2021/10/18 05:18:38;;;;;;;29.97;17.10;;;;;;;12.58;63.85;98672.81;8226111;28;20207;-82
2021/10/18 05:22:41;;;;;;;39.27;18.93;;;;;;;12.52;63.98;98668.72;8224954;28;20234;-80
2021/10/18 05:26:45;;;;;;;32.20;18.80;;;;;;;12.53;64.02;98673.03;8225734;28;20227;-82
2021/10/18 05:30:48;;;;;;;34.27;20.37;;;;;;;12.62;63.70;98671.78;8225506;28;20230;-81
2021/10/18 05:34:51;;;;;;;35.30;21.87;;;;;;;12.60;64.10;98665.81;8225439;28;20215;-81
2021/10/18 05:38:54;;;;;;;34.00;20.83;;;;;;;12.60;64.01;98676.22;8225557;28;20211;-81
2021/10/18 05:42:58;;;;;;;33.23;20.77;;;;;;;12.59;64.08;98679.72;8225285;28;20210;-81
2021/10/18 05:47:04;;;;;;;34.73;23.43;;;;;;;12.56;64.51;98691.06;8225400;28;20230;-81
2021/10/18 05:51:07;;;;;;;33.47;20.50;;;;;;;12.67;64.09;98701.88;8224607;28;20222;-80
2021/10/18 05:55:11;;;;;;;30.90;21.03;;;;;;;12.68;64.00;98700.97;8224894;28;20213;-80
2021/10/18 05:59:16;;;;;;;31.30;21.30;;;;;;;12.65;63.92;98701.09;8224755;28;20211;-81
2021/10/18 06:03:18;;;;;;;28.20;21.17;;;;;;;12.68;63.87;98708.78;8227268;28;20203;-81
2021/10/18 06:07:22;;;;;;;30.17;21.00;;;;;;;12.71;63.58;98723.38;8224413;28;20362;-81
2021/10/18 06:11:25;;;;;;;27.47;21.23;;;;;;;12.71;63.67;98731.19;8224232;28;20230;-80
2021/10/18 06:15:29;;;;;;;27.93;21.13;;;;;;;12.73;63.47;98739.75;8224223;28;20218;-80
2021/10/18 06:19:32;;;;;;;31.50;21.47;;;;;;;12.76;63.72;98736.22;8224302;28;20206;-81
2021/10/18 06:23:35;;;;;;;27.93;21.30;;;;;;;12.82;63.52;98743.75;8224142;28;20250;-81
2021/10/18 06:27:38;;;;;;;26.70;20.97;;;;;;;12.78;63.40;98742.19;8223858;28;20244;-81
2021/10/18 06:31:42;;;;;;;25.07;21.23;;;;;;;12.78;63.29;98745.63;8223994;28;20203;-80
2021/10/18 06:35:45;;;;;;;28.93;22.83;;;;;;;12.73;63.48;98739.75;8223971;28;20203;-81
2021/10/18 06:39:48;;;;;;;31.03;22.20;;;;;;;12.69;63.93;98741.63;8223596;28;20210;-81
2021/10/18 06:43:51;;;;;;;27.67;20.57;;;;;;;12.77;63.56;98743.09;8223713;28;20203;-81
2021/10/18 06:47:55;;;;;;;26.33;21.97;;;;;;;12.77;63.71;98751.72;8223403;28;20239;-80
2021/10/18 06:51:59;;;;;;;26.50;21.27;;;;;;;12.91;63.44;98761.56;8222986;28;20242;-81
2021/10/18 06:56:04;;;;;;;34.53;24.20;;;;;;;12.69;64.35;98765.03;8222959;28;20199;-81
2021/10/18 07:00:08;;;;;;;24.63;21.57;;;;;;;12.82;64.04;98774.94;8223013;28;20203;-81
2021/10/18 07:04:16;;;;;;;34.30;27.47;;;;;;;12.83;63.51;98787.00;8222515;28;20203;-81
2021/10/18 07:08:19;;;;;;;35.50;31.40;;;;;;;12.83;62.72;98792.22;8222796;28;20294;-80
2021/10/18 07:12:22;;;;;;;38.77;33.27;;;;;;;12.79;62.55;98803.66;8222573;28;20254;-81
2021/10/18 07:16:25;;;;;;;12.60;7.60;;;;;;;13.78;70.36;98798.63;8222383;28;20261;-81
2021/10/18 07:20:30;;;;;;;24.73;17.20;;;;;;;15.13;61.84;98799.31;8222257;28;20506;-85
2021/10/18 07:24:36;;;;;;;28.13;24.03;;;;;;;15.11;56.80;98795.94;8222481;28;20203;-86
2021/10/18 07:28:39;;;;;;;34.40;30.70;;;;;;;14.31;58.71;98804.09;8221517;28;20231;-86
2021/10/18 07:32:43;;;;;;;31.07;26.97;;;;;;;14.82;56.96;98807.81;8222059;28;20489;-87
2021/10/18 07:36:49;;;;;;;30.80;27.17;;;;;;;15.21;55.18;98815.44;8221742;28;20498;-84
2021/10/18 07:40:53;;;;;;;35.77;31.63;;;;;;;14.11;57.13;98818.03;8221603;28;20471;-82
2021/10/18 07:44:56;;;;;;;38.60;32.53;;;;;;;13.71;58.91;98830.19;8221454;29;20203;-81
2021/10/18 07:48:59;;;;;;;37.17;33.17;;;;;;;13.69;58.98;98831.13;8221125;29;20239;-81
2021/10/18 07:53:03;;;;;;;39.43;35.13;;;;;;;13.37;59.64;98822.09;8221087;28;20235;-80
2021/10/18 07:57:06;;;;;;;40.90;34.93;;;;;;;13.51;59.33;98823.28;8221139;29;20206;-81
2021/10/18 08:01:09;;;;;;;39.03;34.90;;;;;;;13.43;59.89;98821.00;8228578;28;20205;-81
2021/10/18 08:05:17;;;;;;;38.07;34.03;;;;;;;13.24;60.27;98826.09;8222340;28;20207;-81
2021/10/18 08:09:23;;;;;;;40.20;35.00;;;;;;;13.29;60.05;98825.00;8222229;28;20412;-81
2021/10/18 08:13:26;;;;;;;37.63;33.63;;;;;;;13.50;59.41;98835.44;8221482;28;20203;-81
2021/10/18 08:17:29;;;;;;;39.03;34.23;;;;;;;13.26;59.62;98824.28;8221121;28;20207;-82
2021/10/18 08:21:32;;;;;;;36.27;32.40;;;;;;;13.09;59.79;98828.41;8221090;28;20495;-82
2021/10/18 08:25:36;;;;;;;37.63;32.20;;;;;;;13.03;59.91;98820.84;8221394;28;20203;-80
2021/10/18 08:29:39;;;;;;;33.93;30.33;;;;;;;13.05;60.14;98820.78;8220912;28;20237;-80
2021/10/18 08:33:42;;;;;;;36.10;32.00;;;;;;;13.08;59.42;98823.28;8220601;28;20214;-81
2021/10/18 08:42:10;;;;;;;34.37;29.43;;;;;;;13.11;59.83;98836.13;8225692;29;20517;-80
2021/10/18 08:46:13;;;;;;;34.03;30.20;;;;;;;12.79;60.49;98840.88;8227387;28;20210;-81
2021/10/18 08:50:25;;;;;;;37.43;33.53;;;;;;;12.21;62.05;98846.56;8226908;28;20297;-81
2021/10/18 08:54:28;;;;;;;35.77;30.47;;;;;;;12.51;60.82;98856.72;8229022;28;20238;-81
2021/10/18 08:58:32;;;;;;;32.80;29.40;;;;;;;12.59;60.43;98864.22;8227842;28;20211;-80
2021/10/18 09:02:37;;;;;;;33.93;30.37;;;;;;;12.53;60.51;98849.69;8238728;28;20205;-81
2021/10/18 09:06:45;;;;;;;31.93;28.23;;;;;;;12.84;58.84;98854.53;8260893;28;20399;-80
2021/10/18 09:11:01;;;;;;;31.47;28.10;;;;;;;12.80;59.59;98852.13;8258644;28;20493;-81
2021/10/18 09:15:22;;;;;;;30.93;27.67;;;;;;;12.68;60.28;98853.47;8259045;28;20230;-82
2021/10/18 09:19:26;;;;;;;34.33;29.10;;;;;;;12.97;59.30;98857.50;8259011;28;20215;-80
2021/10/18 09:23:35;;;;;;;32.60;29.20;;;;;;;13.00;59.66;98856.53;8259362;28;20202;-80
2021/10/18 09:27:38;;;;;;;33.13;29.53;;;;;;;12.87;60.03;98867.44;8258710;28;20560;-80
2021/10/18 09:31:45;;;;;;;33.70;30.10;;;;;;;13.19;59.10;98877.44;8257437;28;20218;-81
2021/10/18 09:35:48;;;;;;;35.77;31.80;;;;;;;13.08;59.50;98880.50;8257516;28;20203;-80
2021/10/18 09:39:51;;;;;;;33.03;29.23;;;;;;;13.20;59.45;98884.34;8257231;28;20213;-81
2021/10/18 09:44:00;;;;;;;35.37;31.13;;;;;;;13.18;59.27;98887.00;8257058;28;20391;-80
2021/10/18 10:54:40;;;;;;;40.67;32.43;;;;;;;13.92;57.41;98844.91;8254693;28;20237;-81
2021/10/18 10:58:50;;;;;;;39.63;31.97;;;;;;;13.67;58.03;98832.97;8254924;28;20210;-82
2021/10/18 11:02:53;;;;;;;39.63;32.17;;;;;;;13.73;58.45;98842.25;8241917;28;20266;-81
2021/10/18 11:06:57;;;;;;;40.23;31.93;;;;;;;13.29;59.44;98831.97;8229186;28;20207;-81
2021/10/18 11:11:10;;;;;;;35.63;29.60;;;;;;;13.85;57.97;98844.31;8225741;28;20231;-81
2021/10/18 11:15:17;;;;;;;36.27;30.23;;;;;;;13.90;58.30;98838.94;8226237;28;20207;-80
2021/10/18 11:19:21;;;;;;;38.17;30.03;;;;;;;14.07;57.22;98838.19;8225466;28;20221;-80
2021/10/18 11:23:24;;;;;;;34.03;29.03;;;;;;;14.12;57.24;98830.97;8222687;28;20226;-80
2021/10/18 11:27:30;;;;;;;33.07;28.60;;;;;;;13.44;59.06;98831.34;8221931;28;20482;-80
2021/10/18 11:31:36;;;;;;;34.70;28.30;;;;;;;14.01;57.95;98849.72;8221912;28;20213;-81
2021/10/18 11:35:39;;;;;;;33.63;27.47;;;;;;;14.28;56.93;98842.41;8223316;28;20509;-80
2021/10/18 11:39:42;;;;;;;31.37;26.27;;;;;;;14.61;56.55;98859.22;8225192;28;20520;-80
2021/10/18 11:43:48;;;;;;;32.40;25.47;;;;;;;14.63;55.43;98846.94;8222407;28;20207;-80
2021/10/18 11:47:53;;;;;;;43.17;36.13;;;;;;;14.51;55.71;98856.16;8221151;28;20238;-81
2021/10/18 11:51:56;;;;;;;43.77;37.13;;;;;;;14.55;55.96;98865.50;8221071;28;20242;-81
2021/10/18 11:56:01;;;;;;;36.37;26.73;;;;;;;14.59;54.86;98859.28;8220995;28;20222;-81
2021/10/18 12:00:05;;;;;;;28.70;24.20;;;;;;;15.16;53.77;98842.69;8220936;28;20213;-80
2021/10/18 12:04:09;;;;;;;29.53;24.17;;;;;;;15.53;52.44;98836.44;8224129;28;20210;-80
2021/10/18 12:08:14;;;;;;;29.53;24.13;;;;;;;16.01;52.19;98842.72;8223848;28;20297;-80
2021/10/18 12:12:16;;;;;;;30.87;24.97;;;;;;;15.47;52.30;98831.56;8222051;28;20203;-79
2021/10/18 12:16:24;;;;;;;31.83;24.90;;;;;;;15.92;51.30;98831.94;8223315;28;20206;-79
2021/10/18 12:20:28;;;;;;;28.77;23.87;;;;;;;16.09;50.54;98825.78;8222135;28;20281;-80
2021/10/18 12:24:34;;;;;;;30.43;24.73;;;;;;;16.04;50.68;98818.19;8221134;28;20225;-80
2021/10/18 12:28:40;;;;;;;37.63;31.70;;;;;;;16.01;51.16;98806.16;8221921;28;20445;-79
2021/10/18 12:32:43;;;;;;;32.13;27.17;;;;;;;15.79;52.03;98806.44;8223607;28;20365;-80
2021/10/18 12:36:56;;;;;;;31.53;25.80;;;;;;;15.81;51.90;98786.28;8222845;28;20203;-80
2021/10/18 12:41:12;;;;;;;25.40;22.63;;;;;;;16.29;50.69;98775.06;8249379;28;20198;-80
2021/10/18 12:45:17;;;;;;;27.37;22.57;;;;;;;16.66;50.27;98768.66;8252080;28;20210;-80
2021/10/18 12:49:29;;;;;;;28.13;24.33;;;;;;;15.89;50.15;98779.84;8252023;28;20421;-81
2021/10/18 12:53:35;;;;;;;25.80;21.07;;;;;;;16.61;49.78;98773.28;8252283;28;20239;-83
2021/10/18 12:57:47;;;;;;;26.13;21.80;;;;;;;16.71;48.96;98782.28;8251915;28;20209;-81
2021/10/18 13:02:14;;;;;;;25.90;21.67;;;;;;;16.63;48.69;98770.59;8246134;28;20199;-81
2021/10/18 13:06:18;;;;;;;24.33;21.77;;;;;;;16.75;48.81;98768.13;8219412;28;20209;-81
2021/10/18 13:10:24;;;;;;;25.87;22.23;;;;;;;16.57;48.69;98748.25;8220115;28;20289;-82
2021/10/18 13:14:27;;;;;;;23.80;21.23;;;;;;;16.90;49.09;98744.66;8221158;28;20207;-81
2021/10/18 13:18:30;;;;;;;29.67;21.43;;;;;;;16.87;48.44;98740.44;8222838;28;20218;-86
2021/10/18 13:22:34;;;;;;;25.17;19.60;;;;;;;16.95;50.56;98743.44;8240684;28;20613;-82
2021/10/18 13:26:38;;;;;;;23.47;21.07;;;;;;;16.44;48.98;98739.41;8255779;28;20313;-82
2021/10/18 13:30:41;;;;;;;22.30;20.00;;;;;;;16.38;48.72;98740.59;8253550;28;20227;-81
2021/10/18 13:34:44;;;;;;;24.00;20.17;;;;;;;16.42;48.22;98731.63;8228060;29;20209;-81
2021/10/18 13:38:50;;;;;;;22.43;20.07;;;;;;;16.92;48.40;98738.38;8230105;29;20529;-81
2021/10/18 13:42:54;;;;;;;22.60;20.10;;;;;;;16.73;47.75;98737.75;8228802;29;20277;-81
2021/10/18 13:46:58;;;;;;;20.63;18.60;;;;;;;16.76;48.33;98742.81;8225986;29;20203;-81
2021/10/18 13:51:00;;;;;;;20.10;18.10;;;;;;;16.79;48.12;98758.31;8224888;29;20238;-81
2021/10/18 13:55:05;;;;;;;19.70;17.60;;;;;;;17.17;47.41;98757.88;8224823;29;20210;-81
2021/10/18 13:59:09;;;;;;;20.47;18.47;;;;;;;17.28;47.21;98752.88;8224553;29;20207;-81
2021/10/18 14:03:13;;;;;;;20.73;18.57;;;;;;;17.49;46.99;98749.91;8224289;28;20209;-82
2021/10/18 14:07:16;;;;;;;19.33;16.43;;;;;;;17.57;47.45;98751.16;8224534;28;20436;-80
2021/10/18 14:11:19;;;;;;;20.13;18.23;;;;;;;17.51;47.08;98772.44;8224319;28;20234;-79
2021/10/18 14:15:24;;;;;;;20.83;18.13;;;;;;;17.49;46.64;98763.00;8224002;28;20206;-79
2021/10/18 14:19:27;;;;;;;16.93;15.23;;;;;;;17.17;46.37;98755.28;8223898;28;20279;-81
2021/10/18 14:23:32;;;;;;;17.00;15.20;;;;;;;17.04;47.21;98764.78;8223884;28;20213;-83
2021/10/18 14:27:35;;;;;;;17.33;15.43;;;;;;;16.75;46.68;98756.81;8224401;28;20203;-81
2021/10/18 14:31:40;;;;;;;16.07;14.00;;;;;;;16.81;46.96;98759.06;8224218;28;20230;-82
2021/10/18 14:35:43;;;;;;;15.97;14.27;;;;;;;16.76;47.06;98758.50;8223794;29;20214;-82
2021/10/18 14:39:46;;;;;;;17.50;15.70;;;;;;;16.72;47.69;98764.84;8223786;28;20371;-82
2021/10/18 14:43:51;;;;;;;18.57;16.10;;;;;;;16.57;48.15;98764.75;8224370;29;20209;-81
2021/10/18 14:47:55;;;;;;;16.80;14.23;;;;;;;16.74;48.15;98755.13;8228200;29;20203;-81
2021/10/18 14:51:58;;;;;;;16.17;14.33;;;;;;;16.62;47.86;98746.22;8228118;28;20258;-81
2021/10/18 14:56:01;;;;;;;16.70;14.97;;;;;;;16.57;48.36;98738.63;8225364;28;20203;-81
2021/10/18 15:00:06;;;;;;;15.13;13.43;;;;;;;16.58;48.67;98742.94;8226253;28;20211;-80
2021/10/18 15:04:11;;;;;;;14.97;13.43;;;;;;;16.33;48.78;98735.59;8225370;28;20208;-81
2021/10/18 15:08:14;;;;;;;16.73;13.97;;;;;;;16.04;49.73;98747.66;8227575;28;20203;-81
2021/10/18 15:12:17;;;;;;;15.17;13.57;;;;;;;15.95;50.39;98740.31;8227332;28;20555;-81
2021/10/18 15:16:20;;;;;;;15.77;14.20;;;;;;;15.93;50.32;98742.16;8228843;28;20222;-81
2021/10/18 15:20:25;;;;;;;14.30;12.80;;;;;;;15.92;50.62;98735.28;8227979;28;20207;-81
2021/10/18 15:24:28;;;;;;;15.23;13.63;;;;;;;15.72;51.14;98731.91;8225943;28;20225;-81
2021/10/18 15:28:31;;;;;;;15.25;13.65;;;;;;;16.03;50.29;98740.75;8221895;28;20521;-80
2021/10/18 15:32:34;;;;;;;15.25;13.65;;;;;;;16.09;50.00;98745.66;8222511;28;20609;-80
2021/10/18 15:36:39;;;;;;;12.63;11.43;;;;;;;15.85;51.19;98745.19;8225908;28;20509;-80
2021/10/18 15:40:42;;;;;;;13.83;12.43;;;;;;;15.59;51.97;98736.09;8224197;28;20207;-81
2021/10/18 15:44:45;;;;;;;11.87;10.63;;;;;;;15.62;51.94;98725.50;8224368;28;20210;-81
2021/10/18 15:48:47;;;;;;;11.60;10.40;;;;;;;15.59;52.39;98715.22;8224758;28;20202;-81
2021/10/18 15:52:52;;;;;;;11.77;10.57;;;;;;;15.60;52.42;98724.75;8224386;28;20239;-81
2021/10/18 15:56:55;;;;;;;10.87;9.80;;;;;;;15.47;52.61;98716.69;8223894;28;20382;-76
2021/10/18 16:00:59;;;;;;;13.03;11.23;;;;;;;15.38;52.88;98735.44;8223124;28;20221;-80
2021/10/18 16:05:02;;;;;;;14.57;13.17;;;;;;;15.36;53.49;98748.56;8233935;28;20254;-82
2021/10/18 16:09:06;;;;;;;23.03;20.60;;;;;;;15.31;53.97;98753.19;8231320;28;20198;-81
2021/10/18 16:13:16;;;;;;;20.97;18.77;;;;;;;15.24;54.33;98751.81;8256207;28;20400;-82
2021/10/18 16:17:19;;;;;;;20.50;16.03;;;;;;;15.15;54.19;98754.88;8255790;28;20210;-80
2021/10/18 16:21:22;;;;;;;14.40;12.90;;;;;;;15.06;54.62;98740.56;8239001;28;20203;-79
2021/10/18 16:25:26;;;;;;;12.50;11.03;;;;;;;14.92;54.23;98709.09;8220723;29;20203;-80
2021/10/18 16:29:29;;;;;;;12.63;11.33;;;;;;;14.82;54.87;98690.47;8220351;29;20559;-80
2021/10/18 16:33:32;;;;;;;11.80;10.57;;;;;;;14.79;55.21;98704.50;8220377;29;20203;-80
2021/10/18 16:37:36;;;;;;;11.97;10.50;;;;;;;14.76;55.11;98707.25;8228154;28;20497;-80
2021/10/18 16:41:40;;;;;;;15.20;11.80;;;;;;;14.76;54.88;98709.03;8252352;28;20206;-80
2021/10/18 16:46:02;;;;;;;14.27;12.73;;;;;;;14.73;55.07;98702.19;8252194;28;20250;-80
2021/10/18 16:50:06;;;;;;;15.07;13.47;;;;;;;14.69;54.94;98705.88;8251713;28;20237;-80
2021/10/18 16:54:09;;;;;;;15.77;13.50;;;;;;;14.63;55.28;98712.22;8226729;28;20231;-81
2021/10/18 16:58:15;;;;;;;15.67;13.70;;;;;;;14.64;54.97;98723.50;8220171;29;20509;-82
2021/10/18 17:02:18;;;;;;;14.93;13.33;;;;;;;14.52;55.33;98706.66;8223632;28;20505;-82
2021/10/18 17:06:23;;;;;;;16.93;15.20;;;;;;;14.44;55.33;98711.41;8226487;28;20207;-82
2021/10/18 17:10:26;;;;;;;16.80;14.97;;;;;;;14.38;55.86;98724.75;8225922;28;20429;-82
2021/10/18 17:14:30;;;;;;;17.60;15.77;;;;;;;14.33;56.01;98727.53;8228420;28;20498;-82
2021/10/18 17:18:33;;;;;;;19.23;16.90;;;;;;;14.21;56.27;98739.41;8226026;28;20214;-84
2021/10/18 17:22:36;;;;;;;18.63;16.67;;;;;;;14.19;56.33;98728.22;8225781;28;20214;-84
2021/10/18 17:26:39;;;;;;;19.23;14.43;;;;;;;14.14;56.06;98719.75;8225921;28;20203;-84
2021/10/18 17:30:54;;;;;;;19.47;16.23;;;;;;;14.17;56.29;98729.22;8225424;28;20241;-80
2021/10/18 17:34:57;;;;;;;18.23;15.47;;;;;;;14.12;56.44;98746.81;8225644;28;20226;-82
2021/10/18 17:39:01;;;;;;;18.50;16.33;;;;;;;14.10;56.68;98751.25;8225259;28;20202;-81
2021/10/18 17:43:04;;;;;;;21.30;18.13;;;;;;;14.09;56.72;98753.00;8225248;28;20207;-82
2021/10/18 17:47:11;;;;;;;20.87;18.30;;;;;;;14.02;56.57;98762.84;8225571;28;20517;-81
2021/10/18 17:51:14;;;;;;;25.93;20.80;;;;;;;13.97;56.72;98766.56;8224924;28;20434;-80
2021/10/18 17:55:17;;;;;;;23.43;20.20;;;;;;;13.81;56.97;98753.41;8225158;28;20203;-80
2021/10/18 17:59:20;;;;;;;42.30;14.20;;;;;;;15.28;65.92;98763.78;8224966;28;20400;-84
2021/10/18 18:03:24;;;;;;;26.53;15.40;;;;;;;16.01;55.44;98756.50;8224993;28;20211;-84
2021/10/18 18:07:27;;;;;;;17.00;13.77;;;;;;;16.36;52.74;98751.13;8224549;28;20203;-84
2021/10/18 18:11:30;;;;;;;27.13;20.93;;;;;;;14.92;53.62;98750.81;8223937;28;20406;-81
2021/10/18 18:15:35;;;;;;;25.10;20.27;;;;;;;14.60;54.51;98759.31;8224280;28;20203;-81
2021/10/18 18:19:39;;;;;;;23.43;20.90;;;;;;;14.26;55.63;98758.28;8224019;28;20203;-84
2021/10/18 18:23:42;;;;;;;24.50;21.77;;;;;;;14.14;55.92;98756.22;8223258;28;20195;-85
2021/10/18 18:27:47;;;;;;;27.23;22.93;;;;;;;13.94;56.35;98753.72;8222959;29;20195;-82
2021/10/18 18:31:53;;;;;;;27.27;22.47;;;;;;;13.94;56.47;98764.97;8223633;28;20222;-81
2021/10/18 18:35:57;;;;;;;27.17;23.57;;;;;;;13.76;56.75;98768.38;8223350;28;20203;-83
2021/10/18 18:40:00;;;;;;;24.13;21.50;;;;;;;13.71;57.06;98771.19;8222048;29;20195;-83
2021/10/18 18:44:03;;;;;;;29.13;23.27;;;;;;;13.67;57.13;98757.47;8222685;28;20195;-84
2021/10/18 18:48:06;;;;;;;30.53;23.80;;;;;;;13.68;57.05;98776.53;8222122;28;20207;-83
2021/10/18 18:52:11;;;;;;;27.67;23.27;;;;;;;13.64;56.90;98788.00;8222380;28;20243;-82
2021/10/18 18:56:14;;;;;;;26.93;23.17;;;;;;;13.65;56.96;98784.47;8222585;28;20500;-83
2021/10/18 19:00:21;;;;;;;26.97;23.00;;;;;;;13.55;56.96;98798.81;8222021;28;20202;-83
2021/10/18 19:04:24;;;;;;;25.60;22.63;;;;;;;13.40;57.23;98798.56;8220088;28;20203;-84
2021/10/18 19:08:29;;;;;;;27.97;23.53;;;;;;;13.32;57.72;98786.78;8221723;28;20199;-83
2021/10/18 19:12:32;;;;;;;28.60;24.07;;;;;;;13.31;57.68;98796.34;8221660;28;20223;-83
2021/10/18 19:16:35;;;;;;;27.10;24.03;;;;;;;13.22;57.69;98783.69;8221474;28;20199;-84
2021/10/18 19:20:38;;;;;;;28.10;25.10;;;;;;;13.00;58.77;98786.31;8221448;28;20516;-84
2021/10/18 19:24:43;;;;;;;32.17;25.87;;;;;;;13.28;58.51;98801.63;8220636;28;20203;-85
2021/10/18 19:28:46;;;;;;;31.17;26.70;;;;;;;13.25;57.86;98812.16;8221699;28;20207;-83
2021/10/18 19:32:50;;;;;;;31.43;27.20;;;;;;;13.07;57.87;98795.56;8220766;28;20319;-85
2021/10/18 19:36:53;;;;;;;41.17;34.90;;;;;;;12.92;58.35;98804.84;8220994;28;20266;-84
2021/10/18 19:40:57;;;;;;;30.70;26.77;;;;;;;13.02;57.83;98800.97;8220986;28;20505;-83
2021/10/18 19:45:01;;;;;;;32.87;27.27;;;;;;;12.99;58.15;98806.28;8220931;28;20206;-85
2021/10/18 19:49:04;;;;;;;33.57;26.03;;;;;;;12.96;58.19;98808.16;8220653;29;20216;-84
2021/10/18 19:53:07;;;;;;;33.33;27.17;;;;;;;12.88;58.50;98816.28;8220403;29;20237;-84
2021/10/18 19:57:11;;;;;;;33.67;27.50;;;;;;;12.84;58.54;98809.50;8220433;28;20195;-84